EGTE METAR and TAF | Updated Today

EGTE METAR

Exeter International Airport

Observation time: 23 min. ago

EGTE 291950Z VRB01KT CAVOK 10/08 Q1009

Need help? Read our tutorial on how to read METARs or read the parsed version below.

Exeter International Airport (EGTE) METAR

  • Weather conditions on Thu, 29 Sep 2022 19:50:00 +0000 (23 min. ago):
  • Present conditions: Dry
  • Clouds: Clear skies
  • Visibility: Greater than 10 km
  • Wind: Variable at 1 knots
  • Temperature: 10 celsius
  • Dew point: 8 celsius
  • Pressure: 1009 millibars
  • Remarks: None


Useful to know...

EGTE TAF

Exeter International Airport

TAF EGTE 291700Z 2918/3003 35006KT 9999 SCT035 TEMPO 2922/3003 6000 PROB30 3002/3003 0300 FG VV///
Observation time: 3:13 hr. ago
Need help? Read our tutorial on how to read TAFs or read the parsed version below.

Parsed version of TAF for Exeter International Airport (EGTE)

  • From 29 September at 18:00 UTC, to day 30 of the month at 03:00 UTC
  • Clouds: Scattered at 1067 meters
  • Visibility: Greater than 10 km
  • Wind: 350 degrees at 6
  • Expected to arise temporarily, from 29 September at 22:00 UTC, to day 30 of the month at 03:00 UTC
  • Visibility: 6000 meters
  • From 30 September at 02:00 UTC, to day 30 of the month at 03:00 UTC
    Probability of 30%
  • Clouds: Vertical visibility
  • Visibility: 300 meters
  • Other: Fog